createdAt,value
2022-12-01T07:11:09.153Z,28.30
2022-12-01T07:31:11.080Z,27.63
2022-12-01T07:51:13.053Z,26.20
2022-12-01T08:11:15.313Z,27.55
2022-12-01T08:31:17.180Z,26.30
2022-12-01T08:51:19.159Z,28.58
2022-12-01T09:11:21.118Z,27.73
2022-12-01T09:31:23.605Z,27.42
2022-12-01T09:51:25.648Z,29.00
2022-12-01T10:11:27.432Z,28.50
2022-12-01T10:31:29.808Z,26.42
2022-12-01T10:51:31.822Z,28.63
2022-12-01T11:11:33.510Z,29.08
2022-12-01T11:31:35.744Z,26.67
2022-12-01T11:51:37.724Z,26.73
2022-12-01T12:11:39.435Z,24.85
2022-12-01T12:31:41.886Z,23.35
2022-12-01T12:51:43.339Z,24.80
2022-12-01T13:11:45.309Z,22.48
2022-12-01T13:31:47.550Z,22.85
2022-12-01T13:51:49.499Z,23.30
2022-12-01T14:11:51.133Z,18.63
2022-12-01T14:31:53.890Z,20.00
2022-12-01T14:51:56.460Z,19.13
2022-12-01T15:11:58.384Z,18.50
2022-12-01T15:32:00.405Z,20.63
2022-12-01T15:52:02.393Z,18.50
2022-12-01T16:12:14.600Z,16.25
2022-12-01T16:32:27.140Z,18.85
2022-12-01T16:52:47.233Z,19.27
2022-12-01T17:12:49.982Z,19.63
2022-12-01T17:33:06.258Z,24.10
2022-12-01T17:53:11.707Z,22.77
2022-12-01T18:14:03.149Z,20.77
2022-12-01T18:33:51.703Z,21.88
2022-12-01T18:54:01.705Z,22.10
2022-12-01T19:14:30.733Z,24.52
2022-12-01T19:38:00.926Z,27.67
2022-12-01T19:55:10.149Z,24.33
2022-12-01T20:35:54.337Z,23.27
2022-12-01T21:16:55.404Z,23.00
2022-12-01T21:36:57.608Z,22.92
2022-12-01T21:56:59.711Z,21.65
2022-12-01T22:17:01.564Z,24.95
2022-12-01T22:37:03.974Z,24.48
2022-12-01T22:57:05.666Z,26.40
2022-12-01T23:17:07.739Z,24.98
2022-12-01T23:37:09.231Z,27.58
2022-12-01T23:57:11.533Z,27.52
